Meriden, Wyoming
Current Conditions -  °F | °C
As of 12:55 PM on Wednesday 28 Jan 2015 (Local Time) from K82V Reporting Station
Scattered Clouds Scattered Clouds  
Wind Chill: 52°   Ceiling: Unl
Heat Index: 52°   Visibility: 10mi
Dew Point: 30°   Wind: 36mph
Humidity: 44%   Direction: 310°NW
Pressure: 30.04"   Gusts: 48mph
Location:  41.54°N, 104.32°W
Report Text: K82V 281955Z AUTO 31031G42KT 10SM SCT055 11/M01 A3004 RMK AO2
Loading
Personal Weather Stations






























Interactive Weather Map New forecast layout! Learn more

10-Day Weather Forecast

Advertisements
Track Severe Weather on mobile